createdAt,value
2023-04-03T00:01:04.963Z,5.63
2023-04-03T00:06:09.809Z,4.80
2023-04-03T00:11:12.801Z,5.23
2023-04-03T00:16:16.142Z,6.78
2023-04-03T00:21:20.462Z,5.10
2023-04-03T00:26:23.333Z,6.57
2023-04-03T00:31:26.453Z,6.28
2023-04-03T00:36:31.828Z,5.88
2023-04-03T00:41:34.845Z,5.40
2023-04-03T00:46:37.703Z,7.30
2023-04-03T00:51:42.060Z,5.22
2023-04-03T00:56:45.590Z,6.27
2023-04-03T01:01:48.953Z,4.72
2023-04-03T01:06:53.416Z,8.88
2023-04-03T01:11:56.705Z,10.32
2023-04-03T01:16:59.737Z,7.25
2023-04-03T01:22:13.836Z,8.25
2023-04-03T01:27:16.665Z,6.63
2023-04-03T01:32:21.004Z,9.93
2023-04-03T01:37:23.974Z,12.20
2023-04-03T01:42:26.975Z,10.98
2023-04-03T01:47:32.011Z,8.07
2023-04-03T01:52:35.168Z,11.45
2023-04-03T01:57:38.147Z,13.35
2023-04-03T02:02:42.456Z,13.07
2023-04-03T02:07:45.494Z,10.60
2023-04-03T02:12:48.308Z,10.18
2023-04-03T02:17:53.037Z,10.40
2023-04-03T02:22:56.487Z,9.80
2023-04-03T02:28:01.666Z,12.52
2023-04-03T02:33:05.900Z,10.38
2023-04-03T02:38:08.876Z,9.93
2023-04-03T02:43:12.246Z,10.70
2023-04-03T02:48:17.939Z,7.72
2023-04-03T02:53:21.268Z,10.52
2023-04-03T02:58:25.799Z,7.60
2023-04-03T03:03:32.542Z,8.35
2023-04-03T03:08:36.012Z,9.82
2023-04-03T03:13:39.149Z,5.25
2023-04-03T03:18:43.311Z,13.40
2023-04-03T03:23:46.248Z,7.85
2023-04-03T03:28:49.048Z,11.48
2023-04-03T03:33:53.299Z,7.83
2023-04-03T03:38:56.111Z,10.77
2023-04-03T03:44:00.481Z,10.38
2023-04-03T03:49:07.086Z,13.30
2023-04-03T03:54:10.490Z,10.47
2023-04-03T03:59:13.824Z,7.78
2023-04-03T04:04:18.512Z,16.53
2023-04-03T04:09:22.035Z,9.32
2023-04-03T04:14:25.129Z,12.75
2023-04-03T04:19:30.427Z,11.60
2023-04-03T04:24:33.481Z,10.73
2023-04-03T04:29:38.951Z,14.67
2023-04-03T04:34:45.553Z,12.82
2023-04-03T04:39:48.587Z,11.13
2023-04-03T04:44:51.922Z,10.90
2023-04-03T04:49:56.618Z,15.75
2023-04-03T04:54:59.962Z,12.80
2023-04-03T05:00:04.005Z,10.50
2023-04-03T05:05:10.181Z,13.27
2023-04-03T05:10:14.294Z,12.85
2023-04-03T05:15:17.671Z,13.93
2023-04-03T05:20:22.645Z,12.20
2023-04-03T05:25:27.289Z,16.70
2023-04-03T05:30:31.394Z,16.17
2023-04-03T05:35:37.769Z,18.88
2023-04-03T05:40:41.438Z,19.73
2023-04-03T05:45:46.777Z,18.00
2023-04-03T05:50:52.244Z,16.88
2023-04-03T05:56:00.292Z,14.43
2023-04-03T06:01:05.058Z,17.00
2023-04-03T06:06:09.590Z,15.73
2023-04-03T06:11:12.774Z,15.13
2023-04-03T06:16:16.319Z,12.65
2023-04-03T06:21:20.737Z,22.55
2023-04-03T06:26:23.550Z,11.23
2023-04-03T06:31:26.600Z,13.50
2023-04-03T06:36:31.090Z,17.73
2023-04-03T06:41:35.303Z,15.77
2023-04-03T06:46:39.316Z,14.80
2023-04-03T06:51:43.596Z,13.75
2023-04-03T06:56:46.936Z,14.00
2023-04-03T07:01:49.880Z,12.40
2023-04-03T07:06:54.430Z,9.53
2023-04-03T07:11:57.199Z,13.38
2023-04-03T07:16:59.977Z,10.97
2023-04-03T07:22:04.349Z,11.43
2023-04-03T07:27:09.377Z,10.30
2023-04-03T07:32:12.742Z,13.13
2023-04-03T07:37:17.252Z,10.70
2023-04-03T07:42:20.213Z,11.60
2023-04-03T07:47:23.223Z,12.68
2023-04-03T07:52:27.460Z,10.70
2023-04-03T07:57:30.640Z,11.73
2023-04-03T08:02:33.917Z,8.05
2023-04-03T08:07:38.612Z,7.45
2023-04-03T08:12:41.422Z,10.73
2023-04-03T08:17:44.238Z,8.15
2023-04-03T08:22:48.491Z,6.63
2023-04-03T08:27:51.664Z,18.83
2023-04-03T08:32:54.603Z,11.50
2023-04-03T08:37:58.839Z,10.75
2023-04-03T08:43:09.943Z,9.90
2023-04-03T08:48:16.538Z,10.77
2023-04-03T08:53:23.426Z,4.97
2023-04-03T08:58:29.124Z,7.53
2023-04-03T09:03:33.093Z,7.38
2023-04-03T09:08:41.186Z,9.60
2023-04-03T09:13:49.518Z,7.15
2023-04-03T09:18:56.981Z,5.10
2023-04-03T09:24:03.717Z,7.28
2023-04-03T09:29:08.614Z,6.07
2023-04-03T09:34:18.218Z,4.40
2023-04-03T09:39:23.867Z,4.53
2023-04-03T09:44:28.207Z,5.30
2023-04-03T09:49:30.964Z,8.52
2023-04-03T09:54:41.902Z,5.60
2023-04-03T09:59:47.743Z,8.23
2023-04-03T10:05:02.452Z,6.53
2023-04-03T10:10:21.510Z,4.20
2023-04-03T10:15:35.709Z,7.93
2023-04-03T10:20:41.694Z,5.15
2023-04-03T10:25:52.622Z,6.35
2023-04-03T10:31:00.955Z,6.90
2023-04-03T10:36:12.819Z,5.20
2023-04-03T10:41:21.686Z,6.38
2023-04-03T10:46:30.622Z,3.25
2023-04-03T10:51:39.875Z,4.43
2023-04-03T10:56:47.245Z,3.17
2023-04-03T11:01:53.913Z,4.05
2023-04-03T11:07:00.324Z,2.20
2023-04-03T11:12:07.452Z,2.97
2023-04-03T11:17:31.409Z,1.85
2023-04-03T11:22:37.328Z,1.53
2023-04-03T11:27:44.785Z,1.63
2023-04-03T11:33:01.761Z,1.47
2023-04-03T11:38:07.459Z,2.58
2023-04-03T11:43:24.196Z,5.53
2023-04-03T11:48:49.527Z,2.77
2023-04-03T11:53:52.334Z,3.25
2023-04-03T11:59:28.439Z,2.10
2023-04-03T12:04:32.992Z,2.90
2023-04-03T12:09:58.669Z,3.80
2023-04-03T12:15:25.441Z,1.60
2023-04-03T12:20:57.177Z,2.05
2023-04-03T12:26:13.245Z,1.65
2023-04-03T12:31:18.054Z,1.80
2023-04-03T12:36:27.132Z,2.50
2023-04-03T12:41:38.482Z,3.17
2023-04-03T12:46:45.776Z,3.07
2023-04-03T12:51:49.117Z,2.83
2023-04-03T12:56:52.644Z,2.17
2023-04-03T13:01:58.208Z,3.42
2023-04-03T13:07:01.179Z,1.25
2023-04-03T13:12:05.831Z,2.33
2023-04-03T13:17:15.840Z,1.55
2023-04-03T13:22:29.062Z,2.22
2023-04-03T13:27:32.631Z,3.23
2023-04-03T13:32:36.824Z,3.17
2023-04-03T13:37:39.655Z,2.30
2023-04-03T13:42:43.617Z,1.70
2023-04-03T13:47:49.472Z,1.60
2023-04-03T13:52:55.880Z,4.57
2023-04-03T13:58:00.897Z,3.85
2023-04-03T14:03:10.119Z,3.93
2023-04-03T14:08:12.924Z,8.40
2023-04-03T14:13:16.720Z,1.60
2023-04-03T14:18:22.320Z,2.70
2023-04-03T14:23:25.258Z,2.88
2023-04-03T14:28:28.077Z,2.15
2023-04-03T14:33:35.736Z,3.30
2023-04-03T14:38:38.602Z,1.50
2023-04-03T14:43:41.390Z,3.58
2023-04-03T14:49:08.627Z,3.27
2023-04-03T14:54:15.109Z,1.85
2023-04-03T14:59:18.630Z,3.30
2023-04-03T15:04:23.380Z,3.70
2023-04-03T15:09:28.838Z,2.90
2023-04-03T15:14:37.465Z,2.65
2023-04-03T15:19:51.654Z,2.80
2023-04-03T15:24:54.646Z,3.70
2023-04-03T15:29:57.543Z,2.45
2023-04-03T15:35:01.720Z,2.23
2023-04-03T15:40:05.153Z,3.83
2023-04-03T15:45:09.406Z,2.57
2023-04-03T15:50:14.702Z,1.75
2023-04-03T15:55:17.820Z,3.30
2023-04-03T16:00:21.507Z,2.20
2023-04-03T16:05:26.358Z,2.10
2023-04-03T16:10:29.931Z,5.90
2023-04-03T16:15:33.276Z,2.07
2023-04-03T16:20:37.936Z,5.47
2023-04-03T16:25:41.264Z,7.07
2023-04-03T16:30:44.387Z,3.27
2023-04-03T16:35:49.080Z,3.60
2023-04-03T16:40:53.333Z,3.80
2023-04-03T16:45:56.112Z,4.65
2023-04-03T16:51:00.958Z,3.55
2023-04-03T16:56:04.063Z,3.75
2023-04-03T17:01:14.238Z,3.97
2023-04-03T17:06:20.997Z,3.50
2023-04-03T17:11:24.083Z,4.25
2023-04-03T17:16:27.715Z,2.78
2023-04-03T17:21:33.129Z,4.10
2023-04-03T17:26:37.319Z,3.58
2023-04-03T17:31:40.162Z,7.35
2023-04-03T17:36:44.515Z,4.97
2023-04-03T17:41:49.211Z,3.55
2023-04-03T17:46:52.208Z,4.75
2023-04-03T17:51:56.366Z,4.80
2023-04-03T17:56:59.199Z,6.95
2023-04-03T18:02:02.145Z,5.60
2023-04-03T18:07:09.599Z,4.72
2023-04-03T18:12:12.612Z,6.60
2023-04-03T18:22:42.275Z,6.13
2023-04-03T18:27:46.073Z,3.90
2023-04-03T18:32:49.078Z,8.25
2023-04-03T18:37:53.283Z,4.30
2023-04-03T18:42:56.128Z,4.07
2023-04-03T18:47:59.232Z,5.53
2023-04-03T18:53:03.505Z,6.53
2023-04-03T18:58:06.514Z,6.70
2023-04-03T19:03:10.771Z,11.68
2023-04-03T19:08:15.555Z,4.78
2023-04-03T19:13:18.436Z,4.63
2023-04-03T19:18:21.713Z,4.07
2023-04-03T19:23:26.212Z,6.65
2023-04-03T19:28:29.457Z,7.13
2023-04-03T19:33:32.224Z,5.07
2023-04-03T19:38:36.384Z,6.53
2023-04-03T19:43:39.532Z,6.30
2023-04-03T19:48:42.371Z,5.40
2023-04-03T19:53:47.300Z,9.27
2023-04-03T19:58:54.035Z,6.57
2023-04-03T20:03:58.287Z,6.68
2023-04-03T20:09:02.512Z,6.03
2023-04-03T20:14:05.741Z,6.30
2023-04-03T20:19:09.426Z,3.17
2023-04-03T20:24:15.606Z,5.38
2023-04-03T20:29:19.426Z,7.97
2023-04-03T20:34:22.340Z,9.82
2023-04-03T20:39:26.646Z,9.75
2023-04-03T20:44:29.469Z,8.20
2023-04-03T20:49:32.360Z,8.45
2023-04-03T20:54:37.533Z,6.30
2023-04-03T20:59:40.337Z,8.02
2023-04-03T21:04:47.088Z,7.25
2023-04-03T21:10:28.373Z,7.35
2023-04-03T21:15:51.975Z,4.75
2023-04-03T21:20:56.509Z,5.47
2023-04-03T21:26:00.570Z,5.72
2023-04-03T21:31:03.660Z,4.97
2023-04-03T21:36:08.866Z,6.13
2023-04-03T21:41:11.718Z,4.03
2023-04-03T21:46:14.781Z,3.67
2023-04-03T21:51:18.972Z,5.38
2023-04-03T21:56:22.686Z,5.23
2023-04-03T22:01:25.604Z,4.30
2023-04-03T22:06:30.509Z,5.47
2023-04-03T22:11:33.378Z,8.05
2023-04-03T22:16:36.341Z,5.50
2023-04-03T22:21:41.054Z,5.47
2023-04-03T22:26:44.692Z,6.28
2023-04-03T22:31:47.708Z,3.80
2023-04-03T22:36:53.551Z,5.93
2023-04-03T22:41:56.941Z,6.72
2023-04-03T22:46:59.800Z,8.35
2023-04-03T22:52:04.064Z,4.77
2023-04-03T22:57:06.900Z,7.10
2023-04-03T23:02:09.784Z,11.63
2023-04-03T23:07:13.896Z,10.93
2023-04-03T23:12:16.970Z,10.05
2023-04-03T23:17:19.770Z,9.93
2023-04-03T23:22:24.180Z,6.27
2023-04-03T23:27:26.985Z,7.73
2023-04-03T23:32:30.320Z,11.33
2023-04-03T23:37:34.545Z,8.57
2023-04-03T23:42:37.414Z,5.57
2023-04-03T23:47:40.266Z,6.78
2023-04-03T23:52:44.485Z,7.03
2023-04-03T23:57:47.243Z,13.90
